Terminal Aerodrome Forecast
Issued by NWS

Home | Current Version | Previous Version | Text Only | Print | Product List | Glossary On
Versions: 1 2 3 4 5 6 7 8 9 10 11 12 13 14 15
000
FTUS46 KMTR 260532
TAFSNS
TAF
KSNS 260532Z 2606/2706 30008KT P6SM OVC011
     FM260900 VRB03KT P6SM OVC008
     FM261900 29007KT P6SM SCT015
      TEMPO 2620/2624 BKN015
     FM270200 29010KT P6SM OVC012
     FM270500 30005KT P6SM OVC008=

USA.gov is the U.S. government's official web portal to all federal, state and local government web resources and services.